Time;durP1;ratioP1;P1;durP2;ratioP2;P2;SDS_P1;SDS_P2;PMS_P1;PMS_P2;Temp;Humidity;BMP_temperature;BMP_pressure;BME280_temperature;BME280_humidity;BME280_pressure;Samples;Min_cycle;Max_cycle;Signal;HPM_P1;HPM_P2
2022/05/04 00:00:37;;;;;;;8.50;5.40;;;;;;;9.97;66.19;100638.71;88234;1273;95689;-67
2022/05/04 00:02:46;;;;;;;9.00;5.90;;;;;;;9.91;66.21;100639.52;88204;1273;81659;-66
2022/05/04 00:04:55;;;;;;;7.40;5.20;;;;;;;9.88;66.32;100639.85;88239;1273;81417;-67
2022/05/04 00:07:05;;;;;;;9.30;5.40;;;;;;;9.88;66.36;100639.92;88194;1274;99256;-64
2022/05/04 00:09:13;;;;;;;9.30;6.00;;;;;;;9.88;66.50;100643.20;88239;1273;88651;-68
2022/05/04 00:11:22;;;;;;;12.50;6.00;;;;;;;9.87;66.63;100644.00;88210;1273;95812;-67
2022/05/04 00:13:32;;;;;;;8.20;5.80;;;;;;;9.85;66.72;100645.70;88223;1273;81255;-65
2022/05/04 00:15:41;;;;;;;10.90;6.20;;;;;;;9.86;66.91;100648.68;88215;1273;81522;-67
2022/05/04 00:17:53;;;;;;;12.20;6.00;;;;;;;9.88;66.80;100648.67;88234;1273;98654;-67
2022/05/04 00:20:01;;;;;;;10.10;5.60;;;;;;;9.90;66.81;100652.08;88224;1273;88480;-61
2022/05/04 00:22:16;;;;;;;8.10;5.40;;;;;;;9.90;66.92;100652.49;88188;1273;93743;-64
2022/05/04 00:24:25;;;;;;;8.60;6.00;;;;;;;9.90;66.83;100650.86;88195;1273;80275;-65
2022/05/04 00:26:37;;;;;;;9.40;6.10;;;;;;;9.93;66.79;100655.70;88222;1273;83991;-60
2022/05/04 00:28:46;;;;;;;7.50;5.30;;;;;;;9.93;66.71;100659.45;88218;1273;99103;-63
2022/05/04 00:30:57;;;;;;;10.60;5.60;;;;;;;9.92;66.73;100665.93;88179;1275;89084;-61
2022/05/04 00:33:06;;;;;;;8.00;6.00;;;;;;;9.89;66.81;100662.77;88222;1273;94298;-60
2022/05/04 00:35:16;;;;;;;9.50;5.60;;;;;;;9.89;66.86;100666.01;88150;1273;81799;-68
2022/05/04 00:37:28;;;;;;;8.20;5.30;;;;;;;9.89;66.81;100667.66;88105;1278;80471;-67
2022/05/04 00:39:38;;;;;;;11.50;6.20;;;;;;;9.90;66.88;100670.64;88192;1274;100264;-60
2022/05/04 00:41:47;;;;;;;10.50;5.90;;;;;;;9.91;66.96;100668.71;88169;1274;87508;-63
2022/05/04 00:43:59;;;;;;;7.70;5.30;;;;;;;9.89;67.10;100672.11;88127;1275;94278;-60
2022/05/04 00:46:11;;;;;;;11.60;5.90;;;;;;;9.92;66.99;100671.77;88149;1275;80025;-60
2022/05/04 00:48:22;;;;;;;10.30;5.70;;;;;;;9.99;66.92;100676.05;88162;1274;81737;-61
2022/05/04 00:50:35;;;;;;;10.20;5.60;;;;;;;10.03;67.08;100674.80;88166;1275;99827;-69
2022/05/04 00:52:49;;;;;;;8.40;6.10;;;;;;;10.05;66.96;100675.11;88160;1274;89270;-67
2022/05/04 00:55:02;;;;;;;7.90;5.50;;;;;;;10.06;67.08;100678.79;88150;1274;94976;-65
2022/05/04 00:57:14;;;;;;;9.90;5.30;;;;;;;10.08;67.00;100678.41;88165;1275;80432;-65
2022/05/04 00:59:24;;;;;;;10.00;5.80;;;;;;;10.07;66.93;100678.99;88179;1274;80001;-67
2022/05/04 01:01:36;;;;;;;8.20;5.40;;;;;;;10.06;67.12;100681.85;88130;1278;99813;-66
2022/05/04 01:03:46;;;;;;;6.60;5.00;;;;;;;10.00;67.15;100683.04;88199;1274;88215;-65
2022/05/04 01:05:55;;;;;;;10.70;6.10;;;;;;;9.96;67.26;100682.09;88146;1275;95373;-60
2022/05/04 01:08:04;;;;;;;11.00;6.10;;;;;;;9.95;67.25;100681.96;88152;1275;80274;-62
2022/05/04 01:10:15;;;;;;;9.30;6.20;;;;;;;9.94;67.33;100683.16;88161;1274;82727;-66
2022/05/04 01:12:27;;;;;;;9.10;5.90;;;;;;;9.92;67.35;100678.78;88182;1274;100159;-67
2022/05/04 01:14:36;;;;;;;9.00;6.20;;;;;;;9.95;67.48;100681.52;88155;1275;88876;-66
2022/05/04 01:16:48;;;;;;;6.90;5.30;;;;;;;10.00;67.50;100683.52;88127;1275;94820;-66
2022/05/04 01:18:57;;;;;;;6.90;5.50;;;;;;;10.04;67.52;100683.53;88150;1274;80776;-65
2022/05/04 01:21:08;;;;;;;8.70;5.20;;;;;;;10.07;67.60;100683.51;88109;1278;82518;-67
2022/05/04 01:23:20;;;;;;;7.30;5.60;;;;;;;10.12;67.62;100686.94;88079;1277;99216;-67
2022/05/04 01:25:29;;;;;;;6.70;4.90;;;;;;;10.19;67.55;100687.23;88138;1278;89300;-61
2022/05/04 01:27:38;;;;;;;7.20;5.30;;;;;;;10.23;67.38;100685.31;88077;1277;93865;-62
2022/05/04 01:29:48;;;;;;;8.30;5.50;;;;;;;10.26;67.46;100688.20;88104;1277;80565;-67
2022/05/04 01:31:59;;;;;;;7.20;5.10;;;;;;;10.26;67.34;100691.23;88137;1278;81449;-67
2022/05/04 01:34:08;;;;;;;9.20;5.50;;;;;;;10.25;67.41;100692.15;88109;1277;100291;-62
2022/05/04 01:36:17;;;;;;;6.30;5.30;;;;;;;10.21;67.47;100689.28;88118;1278;88212;-64
2022/05/04 01:38:25;;;;;;;9.60;5.60;;;;;;;10.21;67.34;100687.73;88121;1277;93142;-59
2022/05/04 01:40:37;;;;;;;7.10;5.30;;;;;;;10.19;67.52;100685.62;88086;1278;81719;-66
2022/05/04 01:42:46;;;;;;;7.80;5.10;;;;;;;10.17;67.49;100682.13;88135;1278;82865;-68
2022/05/04 01:44:55;;;;;;;6.00;4.40;;;;;;;10.16;67.53;100682.95;88166;1278;100141;-61
2022/05/04 01:47:05;;;;;;;8.30;5.10;;;;;;;10.16;67.43;100687.63;88107;1277;86110;-60
2022/05/04 01:49:13;;;;;;;6.80;4.90;;;;;;;10.17;67.48;100692.55;88099;1277;95282;-61
2022/05/04 01:51:23;;;;;;;7.20;4.70;;;;;;;10.18;67.45;100695.08;88106;1278;79646;-59
2022/05/04 01:53:33;;;;;;;8.70;4.80;;;;;;;10.21;67.18;100702.31;88114;1278;82304;-61
2022/05/04 01:55:45;;;;;;;6.90;4.60;;;;;;;10.22;67.28;100703.41;88132;1278;100112;-61
2022/05/04 01:57:54;;;;;;;8.00;5.30;;;;;;;10.23;67.32;100702.98;88106;1278;88935;-60
2022/05/04 02:00:03;;;;;;;7.10;5.50;;;;;;;10.24;67.23;100701.45;88109;1277;95921;-66
2022/05/04 02:02:12;;;;;;;7.20;5.20;;;;;;;10.25;67.21;100697.89;88128;1277;79227;-65
2022/05/04 02:04:24;;;;;;;6.50;4.60;;;;;;;10.24;67.12;100703.04;88158;1277;79764;-66
2022/05/04 02:06:33;;;;;;;7.20;4.70;;;;;;;10.23;67.14;100704.63;88098;1277;99671;-66
2022/05/04 02:08:52;;;;;;;8.10;4.80;;;;;;;10.19;67.03;100710.63;88091;1278;88475;-67
2022/05/04 02:11:01;;;;;;;5.40;4.50;;;;;;;10.17;67.07;100719.74;88109;1278;95876;-60
2022/05/04 02:13:10;;;;;;;8.40;4.90;;;;;;;10.12;66.98;100720.04;88108;1277;79993;-61
2022/05/04 02:15:21;;;;;;;6.50;4.30;;;;;;;10.10;66.85;100713.38;88092;1278;83042;-60
2022/05/04 02:17:30;;;;;;;6.50;4.30;;;;;;;10.08;66.80;100713.75;88105;1277;97629;-60
2022/05/04 02:19:42;;;;;;;7.90;5.00;;;;;;;10.07;66.89;100713.98;88116;1278;89041;-60
2022/05/04 02:21:50;;;;;;;6.20;4.00;;;;;;;10.09;66.90;100718.38;88091;1277;95016;-60
2022/05/04 02:23:59;;;;;;;6.50;4.70;;;;;;;10.07;66.95;100717.85;88101;1277;79669;-65
2022/05/04 02:26:08;;;;;;;7.00;5.00;;;;;;;10.08;67.04;100716.15;88127;1277;81264;-67
2022/05/04 02:28:17;;;;;;;6.60;4.40;;;;;;;10.09;66.96;100717.71;88126;1278;100144;-66
2022/05/04 02:30:26;;;;;;;6.20;4.20;;;;;;;10.09;66.99;100714.80;88101;1277;87761;-66
2022/05/04 02:32:34;;;;;;;6.60;4.80;;;;;;;10.08;67.01;100718.64;88076;1278;95180;-71
2022/05/04 02:39:36;;;;;;;6.10;4.30;;;;;;;10.04;66.82;100717.91;88125;1278;99066;-61
2022/05/04 02:41:48;;;;;;;7.60;4.60;;;;;;;10.01;66.96;100719.88;88119;1278;87747;-61
2022/05/04 02:43:57;;;;;;;5.00;3.90;;;;;;;9.97;67.07;100725.00;88091;1278;95819;-68
2022/05/04 02:46:18;;;;;;;6.70;4.60;;;;;;;9.88;67.15;100725.65;88100;1278;81349;-66
2022/05/04 02:48:26;;;;;;;7.10;4.50;;;;;;;9.88;67.18;100728.83;88110;1278;82468;-69
2022/05/04 02:50:35;;;;;;;6.00;4.10;;;;;;;9.88;67.24;100731.48;88098;1277;99196;-66
2022/05/04 02:52:44;;;;;;;6.40;4.50;;;;;;;9.90;67.17;100735.40;88114;1278;88321;-65
2022/05/04 02:54:52;;;;;;;7.30;4.10;;;;;;;9.90;67.27;100741.47;88120;1277;94556;-61
2022/05/04 02:57:01;;;;;;;7.00;4.50;;;;;;;9.90;67.35;100744.71;88112;1278;81054;-59
2022/05/04 02:59:13;;;;;;;11.30;4.80;;;;;;;9.92;67.24;100738.35;88113;1278;81656;-67
2022/05/04 03:03:48;;;;;;;7.60;4.70;;;;;;;9.95;67.36;100737.36;88090;1277;88255;-64
2022/05/04 03:05:57;;;;;;;8.70;4.90;;;;;;;9.97;67.31;100738.89;88095;1277;95265;-61
2022/05/04 03:08:06;;;;;;;7.50;4.20;;;;;;;9.98;67.37;100740.45;88072;1278;80243;-61
2022/05/04 03:10:16;;;;;;;11.90;5.30;;;;;;;9.95;67.21;100747.70;88106;1278;83698;-66
2022/05/04 03:12:25;;;;;;;6.80;5.00;;;;;;;9.93;67.27;100746.70;88122;1277;100548;-66
2022/05/04 03:14:37;;;;;;;7.50;4.50;;;;;;;9.91;67.25;100746.23;88168;1276;86963;-61
2022/05/04 03:16:45;;;;;;;8.90;5.10;;;;;;;9.89;67.18;100751.33;88124;1275;94720;-60
2022/05/04 03:18:57;;;;;;;7.40;4.70;;;;;;;9.84;67.21;100754.41;88172;1275;79743;-59
2022/05/04 03:21:09;;;;;;;10.30;5.00;;;;;;;9.84;67.18;100755.02;88153;1276;83927;-60
2022/05/04 03:23:18;;;;;;;8.50;4.80;;;;;;;9.80;67.18;100759.90;88100;1274;102021;-59
2022/05/04 03:25:27;;;;;;;9.40;5.10;;;;;;;9.79;67.24;100767.23;88145;1274;88625;-66
2022/05/04 03:27:36;;;;;;;7.20;4.00;;;;;;;9.81;67.25;100772.74;88138;1275;94084;-68
2022/05/04 03:29:49;;;;;;;6.80;5.00;;;;;;;9.83;67.22;100777.01;88192;1275;78574;-61
2022/05/04 03:31:57;;;;;;;6.60;4.50;;;;;;;9.87;67.24;100776.94;88154;1274;83492;-60
2022/05/04 03:34:07;;;;;;;10.00;4.90;;;;;;;9.90;67.21;100778.00;88166;1274;98638;-67
2022/05/04 03:36:16;;;;;;;8.10;4.50;;;;;;;9.92;67.29;100780.73;88136;1274;90270;-68
2022/05/04 03:38:25;;;;;;;5.60;3.80;;;;;;;9.91;67.35;100780.45;88128;1275;95006;-65
2022/05/04 03:40:37;;;;;;;9.40;4.60;;;;;;;9.91;67.18;100777.42;88172;1274;78082;-68
2022/05/04 03:42:48;;;;;;;8.80;4.30;;;;;;;9.86;67.06;100776.16;88148;1275;82743;-66
2022/05/04 03:44:57;;;;;;;6.40;4.10;;;;;;;9.81;67.01;100776.85;87861;1275;100375;-61
2022/05/04 03:47:10;;;;;;;9.90;4.10;;;;;;;9.83;66.77;100776.70;88190;1277;85921;-61
2022/05/04 03:49:22;;;;;;;7.10;3.80;;;;;;;9.87;66.78;100782.36;88130;1277;93655;-61
2022/05/04 03:51:31;;;;;;;8.00;4.00;;;;;;;9.83;66.53;100784.73;88147;1275;78543;-61
2022/05/04 03:53:40;;;;;;;7.40;4.00;;;;;;;9.82;66.49;100785.42;88138;1277;80527;-61
2022/05/04 03:55:57;;;;;;;6.00;3.70;;;;;;;9.78;66.24;100789.12;88155;1275;99386;-60
2022/05/04 03:58:09;;;;;;;5.70;3.30;;;;;;;9.73;65.90;100792.91;88151;1276;88707;-61
2022/05/04 04:00:20;;;;;;;6.60;3.50;;;;;;;9.72;65.77;100794.77;88134;1276;93248;-67
2022/05/04 04:02:29;;;;;;;6.10;3.90;;;;;;;9.69;65.61;100789.82;88149;1277;81686;-68
2022/05/04 04:04:38;;;;;;;4.70;3.30;;;;;;;9.69;65.37;100796.63;88157;1277;81142;-63
2022/05/04 04:06:49;;;;;;;7.60;3.30;;;;;;;9.71;65.35;100795.18;88132;1278;98299;-61
2022/05/04 04:08:58;;;;;;;5.40;3.20;;;;;;;9.75;65.18;100797.39;88128;1277;88056;-66
2022/05/04 04:11:07;;;;;;;6.70;3.50;;;;;;;9.80;65.04;100802.23;88146;1277;95538;-67
2022/05/04 04:13:20;;;;;;;6.20;3.40;;;;;;;9.86;64.92;100805.89;88129;1278;79481;-68
2022/05/04 04:15:29;;;;;;;9.00;3.00;;;;;;;9.94;64.67;100813.16;88175;1274;81090;-61
2022/05/04 04:17:38;;;;;;;8.10;2.90;;;;;;;10.00;64.49;100805.82;88141;1278;99049;-60
2022/05/04 04:21:50;;;;;;;4.20;2.50;;;;;;;10.06;64.40;100803.13;88161;1277;86916;-61
2022/05/04 04:22:16;;;;;;;13.50;3.90;;;;;;;10.11;63.99;100808.58;88124;1275;95729;-61
2022/05/04 04:24:26;;;;;;;8.20;2.90;;;;;;;10.17;63.86;100813.13;88123;1278;79509;-61
2022/05/04 04:26:39;;;;;;;3.90;2.60;;;;;;;10.23;63.50;100815.62;88193;1274;81611;-60
2022/05/04 04:28:48;;;;;;;7.00;3.40;;;;;;;10.35;63.33;100821.48;88131;1276;99161;-65
2022/05/04 04:30:58;;;;;;;5.50;2.90;;;;;;;10.36;63.10;100824.15;88164;1274;89114;-67
2022/05/04 04:33:08;;;;;;;6.60;2.80;;;;;;;10.46;62.88;100829.00;88106;1276;96114;-70
2022/05/04 04:35:17;;;;;;;7.30;2.90;;;;;;;10.62;62.78;100825.98;88089;1277;78730;-67
2022/05/04 04:37:26;;;;;;;7.00;2.80;;;;;;;10.82;62.48;100828.28;88115;1277;82830;-67
2022/05/04 04:39:35;;;;;;;5.80;2.60;;;;;;;10.88;61.92;100826.64;88126;1277;98057;-68
2022/05/04 04:41:47;;;;;;;9.40;3.80;;;;;;;10.82;61.60;100825.95;88142;1276;88123;-68
2022/05/04 04:43:59;;;;;;;7.10;2.70;;;;;;;10.80;61.36;100824.20;88102;1277;95602;-61
2022/05/04 04:46:08;;;;;;;8.00;2.70;;;;;;;10.86;61.28;100832.74;88138;1278;79819;-61
2022/05/04 04:48:18;;;;;;;7.20;2.50;;;;;;;10.93;61.14;100844.45;88164;1274;83251;-61
2022/05/04 04:50:30;;;;;;;8.00;2.60;;;;;;;11.09;60.99;100850.10;88147;1277;97089;-67
2022/05/04 04:52:39;;;;;;;10.80;3.40;;;;;;;11.22;60.77;100850.45;88134;1277;88883;-65
2022/05/04 04:54:48;;;;;;;7.00;2.90;;;;;;;11.44;60.69;100849.89;88122;1274;94236;-67
2022/05/04 04:57:00;;;;;;;7.40;2.90;;;;;;;11.94;59.74;100847.38;88121;1278;79524;-66
2022/05/04 04:59:12;;;;;;;9.90;3.10;;;;;;;11.92;59.04;100849.41;88143;1277;82283;-61
2022/05/04 05:01:20;;;;;;;8.30;2.80;;;;;;;12.00;58.52;100850.96;88112;1278;98887;-61
2022/05/04 05:03:29;;;;;;;4.10;2.30;;;;;;;12.26;58.38;100849.62;88112;1277;87419;-61
2022/05/04 05:05:44;;;;;;;7.30;3.20;;;;;;;13.18;58.30;100847.06;88128;1276;95662;-61
2022/05/04 05:07:53;;;;;;;11.10;3.30;;;;;;;15.18;57.71;100846.01;88149;1277;77886;-62
2022/05/04 05:10:02;;;;;;;8.60;2.40;;;;;;;16.66;56.17;100841.77;88110;1277;83456;-67
2022/05/04 05:12:13;;;;;;;5.40;2.60;;;;;;;18.39;54.66;100840.13;88118;1277;99283;-66
2022/05/04 05:16:56;;;;;;;9.50;2.60;;;;;;;21.29;50.11;100846.33;88067;1278;94970;-66
2022/05/04 05:19:08;;;;;;;7.30;2.60;;;;;;;22.33;47.90;100847.75;88099;1277;79472;-62
2022/05/04 05:21:20;;;;;;;4.20;2.40;;;;;;;22.79;45.22;100844.82;88098;1277;83176;-63
2022/05/04 05:23:31;;;;;;;4.70;2.50;;;;;;;22.36;44.00;100852.95;88115;1278;99795;-61
2022/05/04 05:25:41;;;;;;;8.20;3.20;;;;;;;21.90;43.85;100847.46;88140;1278;87974;-60
2022/05/04 05:27:55;;;;;;;12.50;3.70;;;;;;;21.99;42.31;100849.65;88114;1277;91943;-61
2022/05/04 05:30:06;;;;;;;16.60;3.90;;;;;;;21.83;41.44;100843.95;88105;1278;81052;-68
2022/05/04 05:32:15;;;;;;;69.40;11.10;;;;;;;22.05;40.20;100844.77;88124;1277;81259;-63
2022/05/04 05:34:26;;;;;;;52.90;8.90;;;;;;;21.52;39.60;100842.95;88123;1278;99671;-65
2022/05/04 05:36:36;;;;;;;58.50;10.50;;;;;;;20.85;39.60;100849.36;88126;1277;89502;-67
2022/05/04 05:38:46;;;;;;;29.20;5.50;;;;;;;20.21;39.59;100855.88;88110;1277;95046;-65
2022/05/04 05:40:56;;;;;;;17.40;4.50;;;;;;;19.79;39.43;100855.89;88113;1275;79832;-67
2022/05/04 05:43:06;;;;;;;33.10;6.40;;;;;;;19.16;39.35;100850.90;88168;1277;83363;-68
2022/05/04 05:45:15;;;;;;;31.40;6.70;;;;;;;18.54;39.81;100850.98;88142;1277;98799;-61
2022/05/04 05:47:24;;;;;;;14.70;5.50;;;;;;;18.10;40.15;100852.20;88155;1275;87082;-61
2022/05/04 05:49:33;;;;;;;17.70;8.10;;;;;;;17.58;40.22;100852.97;88142;1275;95707;-69
2022/05/04 05:51:42;;;;;;;9.70;4.90;;;;;;;17.17;40.16;100854.84;88150;1275;80589;-67
2022/05/04 05:53:52;;;;;;;12.80;4.50;;;;;;;17.08;40.32;100858.77;88201;1274;82748;-67
2022/05/04 05:56:04;;;;;;;14.90;5.90;;;;;;;17.74;40.19;100858.88;88144;1275;99285;-68
2022/05/04 05:58:16;;;;;;;9.20;4.90;;;;;;;18.53;39.57;100850.42;88140;1277;88195;-67
2022/05/04 06:00:26;;;;;;;9.80;3.80;;;;;;;19.50;39.41;100850.45;88149;1275;94643;-69
2022/05/04 06:02:35;;;;;;;10.40;3.80;;;;;;;19.56;38.77;100849.48;88162;1274;79384;-68
2022/05/04 06:04:47;;;;;;;11.80;3.00;;;;;;;19.70;38.66;100853.15;88145;1276;82475;-67
2022/05/04 06:06:56;;;;;;;4.90;2.20;;;;;;;19.84;38.01;100852.86;88133;1277;99619;-67
2022/05/04 06:09:05;;;;;;;13.10;3.30;;;;;;;20.47;37.92;100847.08;88116;1277;89324;-67
2022/05/04 06:11:17;;;;;;;10.70;4.20;;;;;;;21.52;37.75;100849.80;88127;1275;95710;-67
2022/05/04 06:13:28;;;;;;;11.30;3.20;;;;;;;21.96;36.65;100853.39;88125;1275;81173;-67
2022/05/04 06:15:38;;;;;;;10.70;4.30;;;;;;;21.35;35.93;100846.61;88126;1275;83414;-62
2022/05/04 06:17:47;;;;;;;6.90;3.00;;;;;;;20.59;36.19;100851.48;88149;1276;99919;-61
2022/05/04 06:19:56;;;;;;;7.20;3.30;;;;;;;20.08;36.08;100850.04;88155;1275;89080;-66
2022/05/04 06:22:06;;;;;;;14.30;4.10;;;;;;;19.65;36.35;100851.72;88114;1275;96150;-61
2022/05/04 06:24:15;;;;;;;7.30;3.60;;;;;;;19.43;36.34;100855.67;88153;1276;79374;-62
2022/05/04 06:26:24;;;;;;;7.20;3.10;;;;;;;19.26;36.85;100861.86;88164;1275;80142;-63
2022/05/04 06:28:36;;;;;;;5.80;2.70;;;;;;;19.10;37.05;100859.63;88165;1274;97679;-62
2022/05/04 06:35:42;;;;;;;7.70;3.60;;;;;;;19.83;37.23;100866.91;88160;1276;79717;-67
2022/05/04 06:37:51;;;;;;;6.50;2.90;;;;;;;19.76;36.61;100872.99;88120;1276;82709;-67
2022/05/04 06:40:04;;;;;;;8.20;5.30;;;;;;;20.46;36.16;100874.77;88173;1276;98789;-62
2022/05/04 06:42:16;;;;;;;6.30;3.00;;;;;;;20.49;35.00;100874.60;88175;1275;87959;-62
2022/05/04 06:44:24;;;;;;;6.80;3.10;;;;;;;20.23;35.10;100871.80;88145;1275;95393;-68
2022/05/04 06:46:34;;;;;;;9.00;3.10;;;;;;;20.24;34.95;100873.23;88136;1275;79675;-67
2022/05/04 06:48:52;;;;;;;7.60;4.00;;;;;;;21.31;34.97;100869.23;88139;1275;80122;-68
2022/05/04 06:51:00;;;;;;;12.00;3.50;;;;;;;22.07;33.90;100872.77;88139;1275;99333;-67
2022/05/04 06:53:12;;;;;;;15.10;4.00;;;;;;;22.77;33.65;100872.27;88125;1275;88009;-67
2022/05/04 06:55:24;;;;;;;7.30;3.50;;;;;;;23.67;33.00;100870.71;88122;1277;95414;-67
2022/05/04 06:57:32;;;;;;;10.40;3.30;;;;;;;24.38;32.45;100871.23;88160;1274;79227;-67
2022/05/04 06:59:42;;;;;;;11.70;4.10;;;;;;;25.53;31.54;100866.73;88168;1275;80601;-68
2022/05/04 07:01:51;;;;;;;48.40;9.70;;;;;;;25.87;30.84;100869.49;88145;1275;98008;-66
2022/05/04 07:04:00;;;;;;;45.80;7.60;;;;;;;25.53;30.58;100873.54;88165;1276;87165;-62
2022/05/04 07:06:12;;;;;;;18.60;4.40;;;;;;;26.36;29.87;100871.21;88126;1275;95519;-62
2022/05/04 07:08:22;;;;;;;30.70;6.00;;;;;;;27.23;29.24;100866.77;88174;1277;80460;-64
2022/05/04 07:10:31;;;;;;;17.00;4.20;;;;;;;27.49;27.77;100867.39;88197;1274;82293;-64
2022/05/04 07:12:40;;;;;;;17.40;4.20;;;;;;;28.12;28.25;100868.02;88123;1276;98729;-63
2022/05/04 07:14:55;;;;;;;11.90;3.40;;;;;;;28.75;26.74;100873.33;88144;1275;89254;-68
2022/05/04 07:17:05;;;;;;;7.20;2.70;;;;;;;28.23;27.20;100873.23;88128;1275;95855;-66
2022/05/04 07:19:16;;;;;;;7.00;2.40;;;;;;;27.33;26.29;100876.46;88187;1274;77971;-62
2022/05/04 07:21:24;;;;;;;6.20;2.50;;;;;;;26.10;26.31;100873.28;88142;1275;81856;-63
2022/05/04 07:23:33;;;;;;;7.90;2.90;;;;;;;25.62;26.77;100877.10;88131;1275;98895;-63
2022/05/04 07:25:46;;;;;;;10.50;3.10;;;;;;;25.53;27.09;100876.64;88160;1275;89715;-67
2022/05/04 07:27:54;;;;;;;;;;;;;;;25.99;27.89;100883.48;88105;1277;93847;-67
2022/05/04 07:30:04;;;;;;;9.40;3.50;;;;;;;26.69;27.47;100883.92;88133;1275;81397;-64
2022/05/04 07:32:13;;;;;;;19.70;3.40;;;;;;;26.72;26.93;100889.13;88184;1274;81852;-63
2022/05/04 07:34:27;;;;;;;9.20;2.60;;;;;;;27.30;26.36;100885.77;88157;1275;100092;-67
2022/05/04 07:36:36;;;;;;;7.90;2.30;;;;;;;28.47;26.01;100882.70;88159;1275;86698;-65
2022/05/04 07:38:47;;;;;;;6.30;2.30;;;;;;;29.06;25.72;100886.40;88120;1275;95085;-63
2022/05/04 07:43:26;;;;;;;6.90;3.50;;;;;;;29.84;24.93;100887.34;88183;1275;84043;-62
2022/05/04 07:45:36;;;;;;;9.30;4.30;;;;;;;29.80;23.81;100895.54;88158;1275;99428;-63
2022/05/04 07:47:46;;;;;;;9.80;4.30;;;;;;;30.10;23.58;100891.71;88187;1276;86613;-64
2022/05/04 07:49:55;;;;;;;9.30;4.10;;;;;;;30.35;23.27;100887.58;88159;1275;95110;-63
2022/05/04 07:52:04;;;;;;;8.90;2.70;;;;;;;30.73;23.09;100895.63;88140;1275;79768;-61
2022/05/04 07:54:13;;;;;;;6.70;2.30;;;;;;;30.82;22.93;100894.54;88163;1275;82580;-62
2022/05/04 07:56:22;;;;;;;6.70;2.70;;;;;;;29.83;23.22;100896.64;88144;1275;98031;-61
2022/05/04 07:58:31;;;;;;;4.60;2.20;;;;;;;29.93;23.16;100900.10;88131;1275;88487;-65
2022/05/04 08:05:35;;;;;;;4.70;2.50;;;;;;;29.93;21.37;100902.44;88167;1274;83107;-64
2022/05/04 08:07:44;;;;;;;6.10;2.70;;;;;;;29.09;21.59;100906.40;88136;1275;100238;-67
2022/05/04 08:09:56;;;;;;;14.90;3.20;;;;;;;28.75;22.18;100907.80;88096;1277;90063;-65
2022/05/04 08:12:12;;;;;;;12.00;2.80;;;;;;;28.79;22.44;100906.64;88158;1275;93384;-63
2022/05/04 08:14:24;;;;;;;5.80;2.80;;;;;;;29.34;22.45;100907.71;88185;1274;79380;-63
2022/05/04 08:16:33;;;;;;;6.00;2.20;;;;;;;29.80;21.35;100905.95;88141;1275;82944;-63
2022/05/04 08:18:45;;;;;;;6.10;2.50;;;;;;;29.23;21.53;100908.65;88164;1276;98675;-62
2022/05/04 08:20:57;;;;;;;4.50;2.40;;;;;;;28.91;21.83;100908.38;88138;1275;88323;-62
2022/05/04 08:23:07;;;;;;;6.60;2.60;;;;;;;28.98;22.23;100905.46;88118;1275;94115;-63
2022/05/04 08:25:19;;;;;;;11.70;3.00;;;;;;;29.17;22.05;100901.17;88186;1274;78364;-67
2022/05/04 08:27:28;;;;;;;11.80;3.40;;;;;;;29.11;22.34;100901.09;88157;1274;82994;-66
2022/05/04 08:29:40;;;;;;;6.20;2.50;;;;;;;29.15;22.23;100903.42;88141;1275;98812;-63
2022/05/04 08:31:48;;;;;;;8.10;2.90;;;;;;;29.13;22.30;100904.05;88139;1275;89229;-62
2022/05/04 08:33:57;;;;;;;6.10;2.60;;;;;;;28.88;21.20;100904.41;88079;1277;95361;-62
2022/05/04 08:36:08;;;;;;;3.40;2.50;;;;;;;28.65;21.31;100903.64;88148;1274;81188;-61
2022/05/04 08:38:16;;;;;;;8.10;2.50;;;;;;;27.96;20.69;100903.61;88163;1275;82023;-63
2022/05/04 08:40:29;;;;;;;5.00;2.70;;;;;;;27.88;21.77;100903.98;88091;1278;100110;-65
2022/05/04 08:42:46;;;;;;;7.70;2.20;;;;;;;28.14;22.05;100906.24;88130;1277;87370;-67
2022/05/04 08:44:59;;;;;;;5.00;2.50;;;;;;;28.32;22.21;100910.95;88098;1277;93307;-66
2022/05/04 08:47:12;;;;;;;4.20;2.10;;;;;;;28.60;21.69;100910.63;88096;1277;79010;-67
2022/05/04 08:49:22;;;;;;;10.00;3.00;;;;;;;28.62;22.01;100913.13;88088;1277;82824;-68
2022/05/04 08:51:33;;;;;;;5.00;2.40;;;;;;;28.40;21.79;100918.05;88099;1277;98879;-64
2022/05/04 08:53:44;;;;;;;4.70;2.00;;;;;;;28.16;21.74;100917.34;88073;1277;88371;-67
2022/05/04 08:55:54;;;;;;;7.70;2.30;;;;;;;27.94;22.47;100917.08;88140;1274;95454;-67
2022/05/04 08:58:02;;;;;;;5.20;2.00;;;;;;;28.03;22.49;100913.35;88114;1275;79712;-68
2022/05/04 09:00:16;;;;;;;6.00;2.50;;;;;;;28.12;22.35;100913.61;88119;1274;81980;-64
2022/05/04 09:02:25;;;;;;;7.50;1.90;;;;;;;27.81;21.92;100916.20;88155;1274;98404;-63
2022/05/04 09:04:35;;;;;;;5.10;1.80;;;;;;;27.14;22.37;100916.59;88136;1274;89411;-65
2022/05/04 09:06:48;;;;;;;9.60;2.30;;;;;;;26.33;22.90;100919.79;88167;1274;94122;-63
2022/05/04 09:09:06;;;;;;;4.70;2.20;;;;;;;26.27;22.64;100916.80;88104;1274;78485;-66
2022/05/04 09:11:24;;;;;;;4.20;1.90;;;;;;;26.05;23.25;100913.95;88124;1274;81073;-67
2022/05/04 09:13:32;;;;;;;4.60;1.80;;;;;;;26.17;23.12;100918.33;88153;1275;101672;-67
2022/05/04 09:15:43;;;;;;;6.00;2.20;;;;;;;25.59;23.20;100920.81;88128;1274;87057;-67
2022/05/04 09:18:04;;;;;;;4.30;2.00;;;;;;;24.94;23.37;100914.89;88111;1274;95378;-67
2022/05/04 09:22:41;;;;;;;9.20;2.80;;;;;;;23.93;24.32;100916.34;88143;1274;83629;-61
2022/05/04 09:24:50;;;;;;;7.30;2.00;;;;;;;23.44;24.71;100915.96;88148;1274;98757;-62
2022/05/04 09:27:00;;;;;;;5.80;1.80;;;;;;;23.08;25.27;100917.83;88057;1277;88849;-63
2022/05/04 09:29:14;;;;;;;4.60;1.60;;;;;;;22.90;25.67;100917.05;88184;1275;95090;-64
2022/05/04 09:31:28;;;;;;;5.00;1.70;;;;;;;22.80;25.94;100922.52;88178;1274;78409;-66
2022/05/04 09:33:39;;;;;;;3.10;1.70;;;;;;;22.89;25.73;100919.38;88190;1274;82955;-68
2022/05/04 09:35:50;;;;;;;3.60;1.30;;;;;;;22.59;26.36;100916.11;88105;1275;98303;-67
2022/05/04 09:45:25;;;;;;;6.40;1.70;;;;;;;22.23;26.56;100915.88;88153;1275;80901;-67
2022/05/04 09:47:37;;;;;;;7.30;2.00;;;;;;;21.93;26.40;100916.18;88161;1275;99308;-68
2022/05/04 09:49:53;;;;;;;6.10;1.80;;;;;;;21.74;26.77;100913.48;88157;1275;89602;-65
2022/05/04 09:52:05;;;;;;;6.90;2.00;;;;;;;21.48;27.41;100912.23;88110;1275;95357;-67
2022/05/04 09:54:23;;;;;;;8.60;2.10;;;;;;;21.33;27.37;100917.95;88165;1274;79234;-65
2022/05/04 09:56:32;;;;;;;4.30;2.40;;;;;;;21.52;27.77;100913.72;88137;1274;82521;-63
2022/05/04 09:58:41;;;;;;;6.40;2.30;;;;;;;21.60;27.75;100911.07;88138;1275;98552;-63
2022/05/04 10:00:52;;;;;;;4.50;1.40;;;;;;;21.44;27.30;100915.98;88150;1274;89260;-63
2022/05/04 10:03:01;;;;;;;4.30;2.00;;;;;;;21.21;27.39;100912.98;88155;1275;93730;-62
2022/05/04 10:05:12;;;;;;;2.30;1.30;;;;;;;20.89;27.54;100920.36;88154;1274;80443;-63
2022/05/04 10:07:22;;;;;;;3.30;1.40;;;;;;;20.65;27.57;100922.05;88154;1275;82082;-63
2022/05/04 10:09:32;;;;;;;3.80;1.50;;;;;;;20.68;27.81;100918.23;88202;1274;97825;-63
2022/05/04 10:11:43;;;;;;;3.20;1.60;;;;;;;20.87;28.06;100915.66;88144;1274;88372;-62
2022/05/04 10:13:55;;;;;;;3.10;1.30;;;;;;;20.86;27.99;100914.25;88184;1274;95534;-63
2022/05/04 10:16:08;;;;;;;4.40;1.60;;;;;;;21.14;28.42;100917.16;88143;1275;78612;-62
2022/05/04 10:18:25;;;;;;;8.30;1.90;;;;;;;21.15;27.97;100917.65;88090;1277;81857;-63
2022/05/04 10:20:38;;;;;;;4.70;1.60;;;;;;;21.08;28.39;100909.60;88152;1274;99890;-63
2022/05/04 10:22:53;;;;;;;4.80;1.30;;;;;;;21.04;28.69;100908.00;88162;1274;88468;-63
2022/05/04 10:25:05;;;;;;;3.90;1.50;;;;;;;21.06;28.31;100911.02;88101;1277;93182;-62
2022/05/04 10:27:23;;;;;;;5.20;1.60;;;;;;;21.23;28.14;100905.13;88126;1274;79507;-66
2022/05/04 10:32:04;;;;;;;4.60;1.60;;;;;;;21.03;27.59;100903.95;88082;1277;99483;-63
2022/05/04 10:34:12;;;;;;;5.50;1.80;;;;;;;20.94;27.91;100900.20;88146;1275;87248;-63
2022/05/04 10:36:28;;;;;;;4.30;1.60;;;;;;;20.91;28.15;100894.31;88119;1275;96035;-63
2022/05/04 10:38:38;;;;;;;5.50;1.60;;;;;;;20.92;28.83;100886.53;88121;1275;79757;-61
2022/05/04 10:40:55;;;;;;;5.30;1.70;;;;;;;21.01;28.28;100890.83;88210;1274;81309;-61